sensor_id;sensor_type;location;lat;lon;timestamp;pressure;altitude;pressure_sealevel;temperature;humidity
56671;BME280;42545;50.054;8.306;2022-11-20T00:00:51;99589.38;;;0.51;nan
56671;BME280;42545;50.054;8.306;2022-11-20T00:03:20;99590.34;;;0.53;nan
56671;BME280;42545;50.054;8.306;2022-11-20T00:05:51;99582.56;;;0.53;nan
56671;BME280;42545;50.054;8.306;2022-11-20T00:08:22;99593.78;;;0.52;nan
56671;BME280;42545;50.054;8.306;2022-11-20T00:10:50;99587.53;;;0.48;nan
56671;BME280;42545;50.054;8.306;2022-11-20T00:13:26;99582.19;;;0.45;nan
56671;BME280;42545;50.054;8.306;2022-11-20T00:15:58;99587.38;;;0.45;nan
56671;BME280;42545;50.054;8.306;2022-11-20T00:18:27;99570.69;;;0.40;nan
56671;BME280;42545;50.054;8.306;2022-11-20T00:21:00;99576.88;;;0.42;nan
56671;BME280;42545;50.054;8.306;2022-11-20T00:23:28;99577.84;;;0.44;nan
56671;BME280;42545;50.054;8.306;2022-11-20T00:26:00;99580.34;;;0.43;nan
56671;BME280;42545;50.054;8.306;2022-11-20T00:28:28;99579.47;;;0.42;nan
56671;BME280;42545;50.054;8.306;2022-11-20T00:31:01;99573.28;;;0.40;nan
56671;BME280;42545;50.054;8.306;2022-11-20T00:33:30;99573.25;;;0.38;nan
56671;BME280;42545;50.054;8.306;2022-11-20T00:35:59;99567.00;;;0.35;nan
56671;BME280;42545;50.054;8.306;2022-11-20T00:38:29;99579.31;;;0.39;nan
56671;BME280;42545;50.054;8.306;2022-11-20T00:40:57;99577.59;;;0.40;nan
56671;BME280;42545;50.054;8.306;2022-11-20T00:43:34;99582.88;;;0.41;nan
56671;BME280;42545;50.054;8.306;2022-11-20T00:46:03;99580.28;;;0.41;nan
56671;BME280;42545;50.054;8.306;2022-11-20T00:48:31;99577.75;;;0.43;nan
56671;BME280;42545;50.054;8.306;2022-11-20T00:50:59;99565.44;;;0.38;nan
56671;BME280;42545;50.054;8.306;2022-11-20T00:53:26;99568.84;;;0.37;nan
56671;BME280;42545;50.054;8.306;2022-11-20T00:55:54;99563.66;;;0.37;nan
56671;BME280;42545;50.054;8.306;2022-11-20T00:58:21;99560.84;;;0.33;nan
56671;BME280;42545;50.054;8.306;2022-11-20T01:00:53;99570.66;;;0.38;nan
56671;BME280;42545;50.054;8.306;2022-11-20T01:03:19;99565.50;;;0.40;nan
56671;BME280;42545;50.054;8.306;2022-11-20T01:05:46;99576.88;;;0.42;nan
56671;BME280;42545;50.054;8.306;2022-11-20T01:08:14;99573.53;;;0.45;nan
56671;BME280;42545;50.054;8.306;2022-11-20T01:10:42;99565.59;;;0.42;nan
56671;BME280;42545;50.054;8.306;2022-11-20T01:13:09;99565.44;;;0.38;nan
56671;BME280;42545;50.054;8.306;2022-11-20T01:15:55;99563.50;;;0.34;nan
56671;BME280;42545;50.054;8.306;2022-11-20T01:18:22;99574.78;;;0.35;nan
56671;BME280;42545;50.054;8.306;2022-11-20T01:20:49;99583.38;;;0.34;nan
56671;BME280;42545;50.054;8.306;2022-11-20T01:23:16;99571.25;;;0.33;nan
56671;BME280;42545;50.054;8.306;2022-11-20T01:25:43;99573.88;;;0.34;nan
56671;BME280;42545;50.054;8.306;2022-11-20T01:28:10;99571.44;;;0.37;nan
56671;BME280;42545;50.054;8.306;2022-11-20T01:30:39;99576.72;;;0.39;nan
56671;BME280;42545;50.054;8.306;2022-11-20T01:33:08;99577.69;;;0.41;nan
56671;BME280;42545;50.054;8.306;2022-11-20T01:35:35;99575.09;;;0.41;nan
56671;BME280;42545;50.054;8.306;2022-11-20T01:38:02;99571.59;;;0.41;nan
56671;BME280;42545;50.054;8.306;2022-11-20T01:40:29;99567.22;;;0.40;nan
56671;BME280;42545;50.054;8.306;2022-11-20T01:43:12;99565.38;;;0.37;nan
56671;BME280;42545;50.054;8.306;2022-11-20T01:45:56;99570.66;;;0.38;nan
56671;BME280;42545;50.054;8.306;2022-11-20T01:48:32;99568.94;;;0.39;nan
56671;BME280;42545;50.054;8.306;2022-11-20T01:51:02;99559.34;;;0.38;nan
56671;BME280;42545;50.054;8.306;2022-11-20T01:53:32;99562.69;;;0.35;nan
56671;BME280;42545;50.054;8.306;2022-11-20T01:56:03;99572.19;;;0.35;nan
56671;BME280;42545;50.054;8.306;2022-11-20T01:58:33;99548.00;;;0.36;nan
56671;BME280;42545;50.054;8.306;2022-11-20T02:01:03;99559.50;;;0.41;nan
56671;BME280;42545;50.054;8.306;2022-11-20T02:03:32;99554.41;;;0.43;nan
56671;BME280;42545;50.054;8.306;2022-11-20T02:06:04;99546.63;;;0.43;nan
56671;BME280;42545;50.054;8.306;2022-11-20T02:08:33;99544.91;;;0.43;nan
56671;BME280;42545;50.054;8.306;2022-11-20T02:11:01;99539.72;;;0.43;nan
56671;BME280;42545;50.054;8.306;2022-11-20T02:13:29;99530.16;;;0.42;nan
56671;BME280;42545;50.054;8.306;2022-11-20T02:16:14;99537.94;;;0.42;nan
56671;BME280;42545;50.054;8.306;2022-11-20T02:18:46;99545.13;;;0.48;nan
56671;BME280;42545;50.054;8.306;2022-11-20T02:21:20;99539.19;;;0.50;nan
56671;BME280;42545;50.054;8.306;2022-11-20T02:24:00;99536.59;;;0.50;nan
56671;BME280;42545;50.054;8.306;2022-11-20T02:26:28;99533.91;;;0.49;nan
56671;BME280;42545;50.054;8.306;2022-11-20T02:28:56;99542.75;;;0.52;nan
56671;BME280;42545;50.054;8.306;2022-11-20T02:31:28;99533.31;;;0.54;nan
56671;BME280;42545;50.054;8.306;2022-11-20T02:33:56;99526.38;;;0.53;nan
56671;BME280;42545;50.054;8.306;2022-11-20T02:36:25;99527.31;;;0.55;nan
56671;BME280;42545;50.054;8.306;2022-11-20T02:38:55;99526.44;;;0.55;nan
56671;BME280;42545;50.054;8.306;2022-11-20T02:41:32;99523.84;;;0.55;nan
56671;BME280;42545;50.054;8.306;2022-11-20T02:43:59;99522.81;;;0.51;nan
56671;BME280;42545;50.054;8.306;2022-11-20T02:46:27;99521.84;;;0.49;nan
56671;BME280;42545;50.054;8.306;2022-11-20T02:48:56;99523.53;;;0.49;nan
56671;BME280;42545;50.054;8.306;2022-11-20T02:51:24;99518.41;;;0.50;nan
56671;BME280;42545;50.054;8.306;2022-11-20T02:53:51;99528.66;;;0.47;nan
56671;BME280;42545;50.054;8.306;2022-11-20T02:56:18;99535.63;;;0.48;nan
56671;BME280;42545;50.054;8.306;2022-11-20T02:58:49;99539.09;;;0.49;nan
56671;BME280;42545;50.054;8.306;2022-11-20T03:01:16;99534.75;;;0.48;nan
56671;BME280;42545;50.054;8.306;2022-11-20T03:03:43;99528.66;;;0.47;nan
56671;BME280;42545;50.054;8.306;2022-11-20T03:06:11;99526.06;;;0.47;nan
56671;BME280;42545;50.054;8.306;2022-11-20T03:08:37;99533.78;;;0.46;nan
56671;BME280;42545;50.054;8.306;2022-11-20T03:11:06;99529.56;;;0.48;nan
56671;BME280;42545;50.054;8.306;2022-11-20T03:13:35;99525.31;;;0.50;nan
56671;BME280;42545;50.054;8.306;2022-11-20T03:16:09;99532.06;;;0.46;nan
56671;BME280;42545;50.054;8.306;2022-11-20T03:18:36;99539.34;;;0.53;nan
56671;BME280;42545;50.054;8.306;2022-11-20T03:21:05;99539.47;;;0.56;nan
56671;BME280;42545;50.054;8.306;2022-11-20T03:23:35;99539.69;;;0.61;nan
56671;BME280;42545;50.054;8.306;2022-11-20T03:26:09;99518.94;;;0.61;nan
56671;BME280;42545;50.054;8.306;2022-11-20T03:28:37;99521.44;;;0.60;nan
56671;BME280;42545;50.054;8.306;2022-11-20T03:31:08;99508.13;;;0.52;nan
56671;BME280;42545;50.054;8.306;2022-11-20T03:33:35;99514.50;;;0.59;nan
56671;BME280;42545;50.054;8.306;2022-11-20T03:36:04;99498.84;;;0.57;nan
56671;BME280;42545;50.054;8.306;2022-11-20T03:38:32;99515.38;;;0.59;nan
56671;BME280;42545;50.054;8.306;2022-11-20T03:41:00;99543.06;;;0.59;nan
56671;BME280;42545;50.054;8.306;2022-11-20T03:43:29;99540.59;;;0.62;nan
56671;BME280;42545;50.054;8.306;2022-11-20T03:45:57;99541.50;;;0.62;nan
56671;BME280;42545;50.054;8.306;2022-11-20T03:48:26;99536.34;;;0.64;nan
56671;BME280;42545;50.054;8.306;2022-11-20T03:50:54;99517.22;;;0.62;nan
56671;BME280;42545;50.054;8.306;2022-11-20T03:53:33;99529.47;;;0.64;nan
56671;BME280;42545;50.054;8.306;2022-11-20T03:55:59;99511.38;;;0.66;nan
56671;BME280;42545;50.054;8.306;2022-11-20T03:58:29;99508.78;;;0.66;nan
56671;BME280;42545;50.054;8.306;2022-11-20T04:00:57;99500.06;;;0.65;nan
56671;BME280;42545;50.054;8.306;2022-11-20T04:03:27;99507.88;;;0.65;nan
56671;BME280;42545;50.054;8.306;2022-11-20T04:05:54;99506.84;;;0.62;nan
56671;BME280;42545;50.054;8.306;2022-11-20T04:08:20;99503.34;;;0.61;nan
56671;BME280;42545;50.054;8.306;2022-11-20T04:10:48;99503.44;;;0.63;nan
56671;BME280;42545;50.054;8.306;2022-11-20T04:13:14;99491.41;;;0.65;nan
56671;BME280;42545;50.054;8.306;2022-11-20T04:15:41;99497.56;;;0.67;nan
56671;BME280;42545;50.054;8.306;2022-11-20T04:18:09;99494.97;;;0.67;nan
56671;BME280;42545;50.054;8.306;2022-11-20T04:20:38;99495.91;;;0.69;nan
56671;BME280;42545;50.054;8.306;2022-11-20T04:23:07;99491.59;;;0.69;nan
56671;BME280;42545;50.054;8.306;2022-11-20T04:25:35;99487.41;;;0.71;nan
56671;BME280;42545;50.054;8.306;2022-11-20T04:28:02;99486.50;;;0.71;nan
56671;BME280;42545;50.054;8.306;2022-11-20T04:30:29;99483.00;;;0.70;nan
56671;BME280;42545;50.054;8.306;2022-11-20T04:32:56;99478.63;;;0.69;nan
56671;BME280;42545;50.054;8.306;2022-11-20T04:35:23;99508.16;;;0.71;nan
56671;BME280;42545;50.054;8.306;2022-11-20T04:37:52;99519.38;;;0.70;nan
56671;BME280;42545;50.054;8.306;2022-11-20T04:40:19;99524.63;;;0.72;nan
56671;BME280;42545;50.054;8.306;2022-11-20T04:42:46;99516.09;;;0.74;nan
56671;BME280;42545;50.054;8.306;2022-11-20T04:45:15;99512.53;;;0.72;nan
56671;BME280;42545;50.054;8.306;2022-11-20T04:47:42;99511.72;;;0.73;nan
56671;BME280;42545;50.054;8.306;2022-11-20T04:50:09;99498.75;;;0.73;nan
56671;BME280;42545;50.054;8.306;2022-11-20T04:52:36;99498.75;;;0.73;nan
56671;BME280;42545;50.054;8.306;2022-11-20T04:55:06;99497.09;;;0.75;nan
56671;BME280;42545;50.054;8.306;2022-11-20T04:57:34;99495.38;;;0.76;nan
56671;BME280;42545;50.054;8.306;2022-11-20T05:00:03;99496.34;;;0.78;nan
56671;BME280;42545;50.054;8.306;2022-11-20T05:02:30;99490.34;;;0.79;nan
56671;BME280;42545;50.054;8.306;2022-11-20T05:05:00;99490.28;;;0.77;nan
56671;BME280;42545;50.054;8.306;2022-11-20T05:07:27;99491.06;;;0.76;nan
56671;BME280;42545;50.054;8.306;2022-11-20T05:09:54;99481.53;;;0.75;nan
56671;BME280;42545;50.054;8.306;2022-11-20T05:12:22;99472.56;;;0.69;nan
56671;BME280;42545;50.054;8.306;2022-11-20T05:14:51;99480.50;;;0.72;nan
56671;BME280;42545;50.054;8.306;2022-11-20T05:17:22;99490.00;;;0.71;nan
56671;BME280;42545;50.054;8.306;2022-11-20T05:19:49;99468.47;;;0.74;nan
56671;BME280;42545;50.054;8.306;2022-11-20T05:22:16;99483.25;;;0.75;nan
56671;BME280;42545;50.054;8.306;2022-11-20T05:24:43;99477.00;;;0.71;nan
56671;BME280;42545;50.054;8.306;2022-11-20T05:27:10;99490.94;;;0.73;nan
56671;BME280;42545;50.054;8.306;2022-11-20T05:29:39;99493.56;;;0.73;nan
56671;BME280;42545;50.054;8.306;2022-11-20T05:32:06;99494.34;;;0.72;nan
56671;BME280;42545;50.054;8.306;2022-11-20T05:34:35;99487.31;;;0.70;nan
56671;BME280;42545;50.054;8.306;2022-11-20T05:37:02;99489.16;;;0.72;nan
56671;BME280;42545;50.054;8.306;2022-11-20T05:39:31;99485.75;;;0.73;nan
56671;BME280;42545;50.054;8.306;2022-11-20T05:41:58;99484.81;;;0.71;nan
56671;BME280;42545;50.054;8.306;2022-11-20T05:44:44;99489.91;;;0.70;nan
56671;BME280;42545;50.054;8.306;2022-11-20T05:47:11;99485.53;;;0.69;nan
56671;BME280;42545;50.054;8.306;2022-11-20T05:49:37;99486.41;;;0.69;nan
56671;BME280;42545;50.054;8.306;2022-11-20T05:52:04;99487.25;;;0.68;nan
56671;BME280;42545;50.054;8.306;2022-11-20T05:54:32;99496.94;;;0.72;nan
56671;BME280;42545;50.054;8.306;2022-11-20T05:57:00;99483.78;;;0.68;nan
56671;BME280;42545;50.054;8.306;2022-11-20T05:59:28;99484.84;;;0.73;nan
56671;BME280;42545;50.054;8.306;2022-11-20T06:01:56;99485.88;;;0.76;nan
56671;BME280;42545;50.054;8.306;2022-11-20T06:04:23;99485.16;;;0.79;nan
56671;BME280;42545;50.054;8.306;2022-11-20T06:06:50;99485.97;;;0.78;nan
56671;BME280;42545;50.054;8.306;2022-11-20T06:09:18;99480.63;;;0.75;nan
56671;BME280;42545;50.054;8.306;2022-11-20T06:11:44;99481.53;;;0.75;nan
56671;BME280;42545;50.054;8.306;2022-11-20T06:14:12;99472.84;;;0.75;nan
56671;BME280;42545;50.054;8.306;2022-11-20T06:16:40;99483.28;;;0.76;nan
56671;BME280;42545;50.054;8.306;2022-11-20T06:19:08;99472.09;;;0.77;nan
56671;BME280;42545;50.054;8.306;2022-11-20T06:21:35;99477.22;;;0.76;nan
56671;BME280;42545;50.054;8.306;2022-11-20T06:24:03;99476.41;;;0.77;nan
56671;BME280;42545;50.054;8.306;2022-11-20T06:26:32;99470.19;;;0.73;nan
56671;BME280;42545;50.054;8.306;2022-11-20T06:29:01;99467.59;;;0.73;nan
56671;BME280;42545;50.054;8.306;2022-11-20T06:31:29;99459.72;;;0.72;nan
56671;BME280;42545;50.054;8.306;2022-11-20T06:34:00;99461.34;;;0.70;nan
56671;BME280;42545;50.054;8.306;2022-11-20T06:36:34;99465.63;;;0.69;nan
56671;BME280;42545;50.054;8.306;2022-11-20T06:39:02;99462.16;;;0.69;nan
56671;BME280;42545;50.054;8.306;2022-11-20T06:41:29;99463.00;;;0.68;nan
56671;BME280;42545;50.054;8.306;2022-11-20T06:43:56;99470.78;;;0.68;nan
56671;BME280;42545;50.054;8.306;2022-11-20T06:46:23;99467.28;;;0.67;nan
56671;BME280;42545;50.054;8.306;2022-11-20T06:48:50;99470.84;;;0.69;nan
56671;BME280;42545;50.054;8.306;2022-11-20T06:51:17;99470.03;;;0.70;nan
56671;BME280;42545;50.054;8.306;2022-11-20T06:53:48;99470.09;;;0.72;nan
56671;BME280;42545;50.054;8.306;2022-11-20T06:56:16;99483.34;;;0.78;nan
56671;BME280;42545;50.054;8.306;2022-11-20T06:58:43;99489.59;;;0.82;nan
56671;BME280;42545;50.054;8.306;2022-11-20T07:01:11;99480.84;;;0.80;nan
56671;BME280;42545;50.054;8.306;2022-11-20T07:03:39;99473.03;;;0.80;nan
56671;BME280;42545;50.054;8.306;2022-11-20T07:06:09;99479.28;;;0.83;nan
56671;BME280;42545;50.054;8.306;2022-11-20T07:08:36;99492.34;;;0.85;nan
56671;BME280;42545;50.054;8.306;2022-11-20T07:11:10;99489.66;;;0.83;nan
56671;BME280;42545;50.054;8.306;2022-11-20T07:13:38;99491.31;;;0.81;nan
56671;BME280;42545;50.054;8.306;2022-11-20T07:16:08;99496.50;;;0.81;nan
56671;BME280;42545;50.054;8.306;2022-11-20T07:18:35;99494.06;;;0.84;nan
56671;BME280;42545;50.054;8.306;2022-11-20T07:21:05;99492.47;;;0.88;nan
56671;BME280;42545;50.054;8.306;2022-11-20T07:23:34;99497.69;;;0.88;nan
56671;BME280;42545;50.054;8.306;2022-11-20T07:26:03;99497.72;;;0.89;nan
56671;BME280;42545;50.054;8.306;2022-11-20T07:28:32;99502.19;;;0.92;nan
56671;BME280;42545;50.054;8.306;2022-11-20T07:30:59;99502.38;;;0.96;nan
56671;BME280;42545;50.054;8.306;2022-11-20T07:33:26;99505.13;;;1.00;nan
56671;BME280;42545;50.054;8.306;2022-11-20T07:35:53;99498.22;;;1.00;nan
56671;BME280;42545;50.054;8.306;2022-11-20T07:38:26;99499.25;;;1.04;nan
56671;BME280;42545;50.054;8.306;2022-11-20T07:40:54;99495.91;;;1.06;nan
56671;BME280;42545;50.054;8.306;2022-11-20T07:43:24;99499.47;;;1.08;nan
56671;BME280;42545;50.054;8.306;2022-11-20T07:45:55;99489.06;;;1.08;nan
56671;BME280;42545;50.054;8.306;2022-11-20T07:48:21;99476.69;;;1.03;nan
56671;BME280;42545;50.054;8.306;2022-11-20T07:50:52;99501.53;;;1.15;nan
56671;BME280;42545;50.054;8.306;2022-11-20T07:53:20;99503.44;;;1.20;nan
56671;BME280;42545;50.054;8.306;2022-11-20T07:55:48;99504.44;;;1.23;nan
56671;BME280;42545;50.054;8.306;2022-11-20T07:58:17;99507.13;;;1.25;nan
56671;BME280;42545;50.054;8.306;2022-11-20T08:00:44;99520.28;;;1.28;nan
56671;BME280;42545;50.054;8.306;2022-11-20T08:03:13;99521.28;;;1.31;nan
56671;BME280;42545;50.054;8.306;2022-11-20T08:05:40;99511.84;;;1.33;nan
56671;BME280;42545;50.054;8.306;2022-11-20T08:08:07;99507.53;;;1.34;nan
56671;BME280;42545;50.054;8.306;2022-11-20T08:10:38;99503.84;;;1.29;nan
56671;BME280;42545;50.054;8.306;2022-11-20T08:13:09;99514.50;;;1.35;nan
56671;BME280;42545;50.054;8.306;2022-11-20T08:15:53;99518.94;;;1.38;nan
56671;BME280;42545;50.054;8.306;2022-11-20T08:18:22;99525.19;;;1.41;nan
56671;BME280;42545;50.054;8.306;2022-11-20T08:20:49;99525.31;;;1.44;nan
56671;BME280;42545;50.054;8.306;2022-11-20T08:23:16;99527.16;;;1.47;nan
56671;BME280;42545;50.054;8.306;2022-11-20T08:25:43;99529.69;;;1.45;nan
56671;BME280;42545;50.054;8.306;2022-11-20T08:28:12;99521.00;;;1.45;nan
56671;BME280;42545;50.054;8.306;2022-11-20T08:30:39;99533.38;;;1.50;nan
56671;BME280;42545;50.054;8.306;2022-11-20T08:33:08;99524.16;;;1.57;nan
56671;BME280;42545;50.054;8.306;2022-11-20T08:35:42;99531.41;;;1.64;nan
56671;BME280;42545;50.054;8.306;2022-11-20T08:38:10;99534.31;;;1.72;nan
56671;BME280;42545;50.054;8.306;2022-11-20T08:40:41;99533.47;;;1.73;nan
56671;BME280;42545;50.054;8.306;2022-11-20T08:43:30;99531.78;;;1.73;nan
56671;BME280;42545;50.054;8.306;2022-11-20T08:45:58;99528.97;;;1.69;nan
56671;BME280;42545;50.054;8.306;2022-11-20T08:48:24;99530.78;;;1.70;nan
56671;BME280;42545;50.054;8.306;2022-11-20T08:50:57;99529.06;;;1.70;nan
56671;BME280;42545;50.054;8.306;2022-11-20T08:53:24;99534.41;;;1.73;nan
56671;BME280;42545;50.054;8.306;2022-11-20T08:55:53;99537.09;;;1.77;nan
56671;BME280;42545;50.054;8.306;2022-11-20T08:58:20;99550.31;;;1.81;nan
56671;BME280;42545;50.054;8.306;2022-11-20T09:00:48;99545.19;;;1.83;nan
56671;BME280;42545;50.054;8.306;2022-11-20T09:03:18;99540.66;;;1.79;nan
56671;BME280;42545;50.054;8.306;2022-11-20T09:05:46;99543.41;;;1.82;nan
56671;BME280;42545;50.054;8.306;2022-11-20T09:08:17;99544.34;;;1.84;nan
56671;BME280;42545;50.054;8.306;2022-11-20T09:10:44;99545.50;;;1.90;nan
56671;BME280;42545;50.054;8.306;2022-11-20T09:13:16;99544.81;;;1.95;nan
56671;BME280;42545;50.054;8.306;2022-11-20T09:15:43;99544.88;;;1.96;nan
56671;BME280;42545;50.054;8.306;2022-11-20T09:18:12;99543.16;;;1.97;nan
56671;BME280;42545;50.054;8.306;2022-11-20T09:20:39;99549.13;;;1.94;nan
56671;BME280;42545;50.054;8.306;2022-11-20T09:23:07;99543.78;;;1.91;nan
56671;BME280;42545;50.054;8.306;2022-11-20T09:25:36;99536.88;;;1.91;nan
56671;BME280;42545;50.054;8.306;2022-11-20T09:28:03;99538.66;;;1.92;nan
56671;BME280;42545;50.054;8.306;2022-11-20T09:30:30;99540.47;;;1.95;nan
56671;BME280;42545;50.054;8.306;2022-11-20T09:33:00;99542.34;;;1.98;nan
56671;BME280;42545;50.054;8.306;2022-11-20T09:35:28;99547.56;;;1.98;nan
56671;BME280;42545;50.054;8.306;2022-11-20T09:37:55;99538.97;;;2.00;nan
56671;BME280;42545;50.054;8.306;2022-11-20T09:40:24;99539.84;;;2.01;nan
56671;BME280;42545;50.054;8.306;2022-11-20T09:42:56;99539.03;;;2.02;nan
56671;BME280;42545;50.054;8.306;2022-11-20T09:45:34;99530.47;;;2.04;nan
56671;BME280;42545;50.054;8.306;2022-11-20T09:48:15;99537.38;;;2.04;nan
56671;BME280;42545;50.054;8.306;2022-11-20T09:50:48;99537.25;;;2.01;nan
56671;BME280;42545;50.054;8.306;2022-11-20T09:53:30;99541.72;;;2.03;nan
56671;BME280;42545;50.054;8.306;2022-11-20T09:56:02;99537.53;;;2.07;nan
56671;BME280;42545;50.054;8.306;2022-11-20T09:58:38;99541.00;;;2.07;nan
56671;BME280;42545;50.054;8.306;2022-11-20T10:01:11;99528.94;;;2.09;nan
56671;BME280;42545;50.054;8.306;2022-11-20T10:03:49;99535.09;;;2.11;nan
56671;BME280;42545;50.054;8.306;2022-11-20T10:06:28;99540.50;;;2.16;nan
56671;BME280;42545;50.054;8.306;2022-11-20T10:09:03;99541.31;;;2.15;nan
56671;BME280;42545;50.054;8.306;2022-11-20T10:11:42;99540.50;;;2.16;nan
56671;BME280;42545;50.054;8.306;2022-11-20T10:14:25;99527.50;;;2.16;nan
56671;BME280;42545;50.054;8.306;2022-11-20T10:17:03;99524.25;;;2.22;nan
56671;BME280;42545;50.054;8.306;2022-11-20T10:19:45;99527.94;;;2.27;nan
56671;BME280;42545;50.054;8.306;2022-11-20T10:22:26;99521.09;;;2.29;nan
56671;BME280;42545;50.054;8.306;2022-11-20T10:25:04;99515.16;;;2.33;nan
56671;BME280;42545;50.054;8.306;2022-11-20T10:27:56;99513.56;;;2.37;nan
56671;BME280;42545;50.054;8.306;2022-11-20T10:30:35;99511.09;;;2.40;nan
56671;BME280;42545;50.054;8.306;2022-11-20T10:33:06;99506.84;;;2.42;nan
56671;BME280;42545;50.054;8.306;2022-11-20T10:35:41;99506.03;;;2.43;nan
56671;BME280;42545;50.054;8.306;2022-11-20T10:38:16;99499.97;;;2.44;nan
56671;BME280;42545;50.054;8.306;2022-11-20T10:40:47;99498.31;;;2.46;nan
56671;BME280;42545;50.054;8.306;2022-11-20T10:43:21;99491.44;;;2.48;nan
56671;BME280;42545;50.054;8.306;2022-11-20T10:45:55;99495.00;;;2.50;nan
56671;BME280;42545;50.054;8.306;2022-11-20T10:48:25;99465.06;;;2.39;nan
56671;BME280;42545;50.054;8.306;2022-11-20T10:51:07;99488.09;;;2.50;nan
56671;BME280;42545;50.054;8.306;2022-11-20T10:53:54;99493.41;;;2.54;nan
56671;BME280;42545;50.054;8.306;2022-11-20T10:56:30;99487.44;;;2.56;nan
56671;BME280;42545;50.054;8.306;2022-11-20T10:59:10;99491.06;;;2.60;nan
56671;BME280;42545;50.054;8.306;2022-11-20T11:01:41;99487.44;;;2.56;nan
56671;BME280;42545;50.054;8.306;2022-11-20T11:04:33;99492.66;;;2.56;nan
56671;BME280;42545;50.054;8.306;2022-11-20T11:07:09;99478.91;;;2.60;nan
56671;BME280;42545;50.054;8.306;2022-11-20T11:09:39;99483.47;;;2.66;nan
56671;BME280;42545;50.054;8.306;2022-11-20T11:12:09;99481.06;;;2.71;nan
56671;BME280;42545;50.054;8.306;2022-11-20T11:14:45;99475.91;;;2.72;nan
56671;BME280;42545;50.054;8.306;2022-11-20T11:17:26;99460.97;;;2.68;nan
56671;BME280;42545;50.054;8.306;2022-11-20T11:20:03;99473.53;;;2.78;nan
56671;BME280;42545;50.054;8.306;2022-11-20T11:22:32;99466.59;;;2.79;nan
56671;BME280;42545;50.054;8.306;2022-11-20T11:25:00;99466.59;;;2.79;nan
56671;BME280;42545;50.054;8.306;2022-11-20T11:27:27;99462.56;;;2.87;nan
56671;BME280;42545;50.054;8.306;2022-11-20T11:30:12;99449.81;;;2.95;nan
56671;BME280;42545;50.054;8.306;2022-11-20T11:32:42;99457.09;;;3.03;nan
56671;BME280;42545;50.054;8.306;2022-11-20T11:35:26;99457.44;;;3.13;nan
56671;BME280;42545;50.054;8.306;2022-11-20T11:38:02;99461.91;;;3.17;nan
56671;BME280;42545;50.054;8.306;2022-11-20T11:40:34;99458.50;;;3.18;nan
56671;BME280;42545;50.054;8.306;2022-11-20T11:43:06;99455.97;;;3.21;nan
56671;BME280;42545;50.054;8.306;2022-11-20T11:45:55;99445.59;;;3.22;nan
56671;BME280;42545;50.054;8.306;2022-11-20T11:48:22;99447.59;;;3.30;nan
56671;BME280;42545;50.054;8.306;2022-11-20T11:50:50;99435.69;;;3.36;nan
56671;BME280;42545;50.054;8.306;2022-11-20T11:53:22;99439.44;;;3.44;nan
56671;BME280;42545;50.054;8.306;2022-11-20T11:55:58;99434.22;;;3.44;nan
56671;BME280;42545;50.054;8.306;2022-11-20T11:58:41;99444.88;;;3.51;nan
56671;BME280;42545;50.054;8.306;2022-11-20T12:01:22;99427.63;;;3.56;nan
56671;BME280;42545;50.054;8.306;2022-11-20T12:04:02;99433.97;;;3.62;nan
56671;BME280;42545;50.054;8.306;2022-11-20T12:06:31;99433.75;;;3.56;nan
56671;BME280;42545;50.054;8.306;2022-11-20T12:09:04;99420.50;;;3.50;nan
56671;BME280;42545;50.054;8.306;2022-11-20T12:11:37;99425.00;;;3.54;nan
56671;BME280;42545;50.054;8.306;2022-11-20T12:14:13;99421.34;;;3.49;nan
56671;BME280;42545;50.054;8.306;2022-11-20T12:16:41;99415.13;;;3.45;nan
56671;BME280;42545;50.054;8.306;2022-11-20T12:19:14;99412.41;;;3.42;nan
56671;BME280;42545;50.054;8.306;2022-11-20T12:21:49;99413.47;;;3.47;nan
56671;BME280;42545;50.054;8.306;2022-11-20T12:24:44;99407.38;;;3.47;nan
56671;BME280;42545;50.054;8.306;2022-11-20T12:27:35;99414.47;;;3.51;nan
56671;BME280;42545;50.054;8.306;2022-11-20T12:30:08;99409.19;;;3.50;nan
56671;BME280;42545;50.054;8.306;2022-11-20T12:32:50;99413.53;;;3.49;nan
56671;BME280;42545;50.054;8.306;2022-11-20T12:35:41;99413.53;;;3.49;nan
56671;BME280;42545;50.054;8.306;2022-11-20T12:38:30;99409.19;;;3.50;nan
56671;BME280;42545;50.054;8.306;2022-11-20T12:41:13;99396.16;;;3.50;nan
56671;BME280;42545;50.054;8.306;2022-11-20T12:44:10;99396.31;;;3.54;nan
56671;BME280;42545;50.054;8.306;2022-11-20T12:47:07;99405.06;;;3.56;nan
56671;BME280;42545;50.054;8.306;2022-11-20T12:49:45;99398.13;;;3.57;nan
56671;BME280;42545;50.054;8.306;2022-11-20T12:52:37;99395.63;;;3.60;nan
56671;BME280;42545;50.054;8.306;2022-11-20T12:55:14;99389.56;;;3.61;nan
56671;BME280;42545;50.054;8.306;2022-11-20T12:57:49;99385.13;;;3.58;nan
56671;BME280;42545;50.054;8.306;2022-11-20T13:00:18;99397.31;;;3.59;nan
56671;BME280;42545;50.054;8.306;2022-11-20T13:03:06;99396.56;;;3.62;nan
56671;BME280;42545;50.054;8.306;2022-11-20T13:05:48;99382.72;;;3.64;nan
56671;BME280;42545;50.054;8.306;2022-11-20T13:08:23;99375.69;;;3.62;nan
56671;BME280;42545;50.054;8.306;2022-11-20T13:10:56;99374.13;;;3.67;nan
56671;BME280;42545;50.054;8.306;2022-11-20T13:13:35;99374.25;;;3.72;nan
56671;BME280;42545;50.054;8.306;2022-11-20T13:16:08;99366.53;;;3.75;nan
56671;BME280;42545;50.054;8.306;2022-11-20T13:18:40;99363.13;;;3.77;nan
56671;BME280;42545;50.054;8.306;2022-11-20T13:21:15;99374.50;;;3.79;nan
56671;BME280;42545;50.054;8.306;2022-11-20T13:23:44;99376.19;;;3.77;nan
56671;BME280;42545;50.054;8.306;2022-11-20T13:26:20;99369.22;;;3.76;nan
56671;BME280;42545;50.054;8.306;2022-11-20T13:29:01;99363.13;;;3.77;nan
56671;BME280;42545;50.054;8.306;2022-11-20T13:31:31;99368.22;;;3.73;nan
56671;BME280;42545;50.054;8.306;2022-11-20T13:34:00;99365.56;;;3.71;nan
56671;BME280;42545;50.054;8.306;2022-11-20T13:36:29;99360.34;;;3.71;nan
56671;BME280;42545;50.054;8.306;2022-11-20T13:39:04;99359.47;;;3.71;nan
56671;BME280;42545;50.054;8.306;2022-11-20T13:41:33;99354.91;;;3.65;nan
56671;BME280;42545;50.054;8.306;2022-11-20T13:44:11;99340.22;;;3.67;nan
56671;BME280;42545;50.054;8.306;2022-11-20T13:46:41;99342.06;;;3.71;nan
56671;BME280;42545;50.054;8.306;2022-11-20T13:49:14;99339.53;;;3.73;nan
56671;BME280;42545;50.054;8.306;2022-11-20T13:51:44;99342.13;;;3.73;nan
56671;BME280;42545;50.054;8.306;2022-11-20T13:54:29;99327.06;;;3.64;nan